Time;durP1;ratioP1;P1;durP2;ratioP2;P2;SDS_P1;SDS_P2;PMS_P1;PMS_P2;Temp;Humidity;BMP_temperature;BMP_pressure;BME280_temperature;BME280_humidity;BME280_pressure;Samples;Min_cycle;Max_cycle;Signal;HPM_P1;HPM_P2
2023/03/30 00:05:05;;;;;;;13.10;8.90;;;;;;;3.92;61.55;99750.71;218373;1253;139947;-70
2023/03/30 00:10:17;;;;;;;13.00;7.20;;;;;;;3.95;61.46;99739.38;221023;1253;139671;-70
2023/03/30 00:15:25;;;;;;;11.30;6.70;;;;;;;3.99;61.70;99734.46;218578;1254;139964;-66
2023/03/30 00:20:33;;;;;;;12.90;7.70;;;;;;;4.03;61.47;99735.88;220122;1254;140384;-68
2023/03/30 00:25:40;;;;;;;13.80;8.00;;;;;;;4.09;61.71;99729.06;218962;1254;139533;-71
2023/03/30 00:30:47;;;;;;;13.30;9.10;;;;;;;4.12;61.86;99729.20;218693;1257;139923;-68
2023/03/30 00:35:58;;;;;;;12.70;7.60;;;;;;;4.14;61.82;99725.81;220312;1254;139293;-70
2023/03/30 00:41:04;;;;;;;13.70;8.10;;;;;;;4.17;61.83;99720.60;218242;1254;143206;-72
2023/03/30 00:46:08;;;;;;;12.80;8.30;;;;;;;4.20;61.94;99712.70;219469;1254;139654;-72
2023/03/30 00:51:14;;;;;;;10.80;7.50;;;;;;;4.21;61.95;99703.34;218367;1257;138931;-70
2023/03/30 00:56:26;;;;;;;11.10;6.40;;;;;;;4.23;62.17;99697.55;218162;1256;139109;-71
2023/03/30 01:01:33;;;;;;;14.40;8.10;;;;;;;4.24;62.16;99700.00;217988;1254;139419;-71
2023/03/30 01:06:39;;;;;;;14.90;8.40;;;;;;;4.24;62.30;99699.44;218041;1254;138808;-68
2023/03/30 01:11:44;;;;;;;11.20;7.50;;;;;;;4.25;62.58;99692.33;218497;1254;139366;-69
2023/03/30 01:16:56;;;;;;;14.40;8.00;;;;;;;4.24;62.24;99686.52;218451;1257;140068;-70
2023/03/30 01:22:07;;;;;;;21.00;12.00;;;;;;;4.22;62.62;99681.31;219800;1255;139044;-69
2023/03/30 01:27:44;;;;;;;12.20;7.50;;;;;;;4.21;62.84;99681.27;218427;1254;140362;-66
2023/03/30 01:33:32;;;;;;;9.50;7.70;;;;;;;4.21;62.54;99670.91;219969;1254;139051;-66
2023/03/30 01:39:01;;;;;;;17.60;9.80;;;;;;;4.20;62.77;99671.15;218181;1255;138579;-66
2023/03/30 01:44:31;;;;;;;16.30;9.20;;;;;;;4.19;63.19;99670.93;219474;1254;139166;-67
2023/03/30 01:50:05;;;;;;;15.50;8.50;;;;;;;4.18;63.23;99667.27;219971;1254;138550;-67
2023/03/30 01:55:28;;;;;;;15.50;7.20;;;;;;;4.16;63.17;99664.63;219325;1256;139411;-68
2023/03/30 02:00:35;;;;;;;10.50;6.80;;;;;;;4.19;63.39;99661.40;218541;1254;140328;-69
2023/03/30 02:05:46;;;;;;;11.40;6.30;;;;;;;4.22;63.60;99662.11;221103;1254;139410;-67
2023/03/30 02:10:54;;;;;;;16.00;7.90;;;;;;;4.26;63.57;99659.65;221313;1254;139569;-68
2023/03/30 02:16:05;;;;;;;9.30;6.70;;;;;;;4.35;63.56;99658.98;218280;1254;140635;-67
2023/03/30 02:21:09;;;;;;;13.10;8.20;;;;;;;4.42;63.65;99654.44;218752;1257;139673;-67
2023/03/30 02:26:14;;;;;;;12.00;6.70;;;;;;;4.48;63.75;99644.77;220250;1254;139874;-67
2023/03/30 02:31:19;;;;;;;14.40;6.50;;;;;;;4.52;63.92;99639.42;219142;1254;139279;-67
2023/03/30 02:37:00;;;;;;;12.70;7.60;;;;;;;4.57;64.12;99636.67;220242;1253;139681;-67
2023/03/30 02:42:13;;;;;;;9.50;6.60;;;;;;;4.59;63.93;99627.73;220288;1254;139607;-68
2023/03/30 02:47:21;;;;;;;11.10;5.00;;;;;;;4.61;64.09;99630.29;218992;1254;139416;-67
2023/03/30 02:52:43;;;;;;;12.00;7.80;;;;;;;4.62;64.12;99618.71;219269;1254;139000;-66
2023/03/30 02:58:04;;;;;;;10.50;5.40;;;;;;;4.62;64.13;99612.63;218311;1254;140009;-66
2023/03/30 03:03:31;;;;;;;10.70;7.00;;;;;;;4.63;64.18;99603.33;218578;1257;138880;-67
2023/03/30 03:08:39;;;;;;;10.30;5.40;;;;;;;4.63;64.58;99589.16;218255;1254;139830;-73
2023/03/30 03:13:44;;;;;;;10.50;5.60;;;;;;;4.63;64.72;99584.61;218623;1255;139000;-67
2023/03/30 03:18:49;;;;;;;11.20;8.60;;;;;;;4.64;64.72;99583.31;218799;1254;138819;-66
2023/03/30 03:23:53;;;;;;;8.50;6.00;;;;;;;4.67;65.15;99579.70;218477;1254;139802;-66
2023/03/30 03:28:58;;;;;;;10.10;6.60;;;;;;;4.66;65.20;99574.77;218594;1254;140889;-65
2023/03/30 03:34:03;;;;;;;8.60;4.90;;;;;;;4.64;65.45;99572.79;218448;1256;139267;-66
2023/03/30 03:39:07;;;;;;;7.90;5.40;;;;;;;4.62;65.56;99566.77;220033;1253;139070;-66
2023/03/30 03:44:12;;;;;;;12.70;6.70;;;;;;;4.61;65.64;99566.11;219210;1257;139231;-66
2023/03/30 03:49:18;;;;;;;8.20;5.80;;;;;;;4.62;65.60;99570.02;219777;1254;139589;-66
2023/03/30 03:54:23;;;;;;;8.30;5.70;;;;;;;4.64;65.74;99558.77;220067;1255;138289;-68
2023/03/30 03:59:26;;;;;;;8.30;6.20;;;;;;;4.65;65.90;99553.13;219652;1257;138876;-68
2023/03/30 04:04:31;;;;;;;13.30;6.50;;;;;;;4.67;66.18;99540.66;220604;1253;139961;-68
2023/03/30 04:09:35;;;;;;;12.30;7.20;;;;;;;4.69;66.08;99536.08;219777;1254;140596;-68
2023/03/30 04:14:40;;;;;;;11.00;6.70;;;;;;;4.74;66.25;99528.82;218592;1257;139909;-69
2023/03/30 04:19:45;;;;;;;7.90;6.40;;;;;;;4.77;66.64;99520.33;219938;1254;139654;-69
2023/03/30 04:24:51;;;;;;;9.10;6.10;;;;;;;4.78;66.69;99516.92;219579;1255;139746;-67
2023/03/30 04:29:57;;;;;;;11.80;5.80;;;;;;;4.78;66.60;99512.45;219223;1256;139399;-70
2023/03/30 04:35:04;;;;;;;8.60;7.10;;;;;;;4.79;66.62;99510.02;219037;1256;139284;-70
2023/03/30 04:40:09;;;;;;;11.70;7.40;;;;;;;4.80;66.65;99504.09;218539;1257;141252;-67
2023/03/30 04:45:15;;;;;;;8.70;7.40;;;;;;;4.81;66.76;99504.49;218551;1254;140924;-72
2023/03/30 04:50:21;;;;;;;10.30;6.10;;;;;;;4.82;66.64;99501.41;219216;1256;140083;-74
2023/03/30 04:55:26;;;;;;;10.50;5.50;;;;;;;4.83;67.18;99493.86;218479;1254;139318;-74
2023/03/30 05:00:31;;;;;;;9.50;5.30;;;;;;;4.83;67.35;99478.49;219439;1253;140092;-75
2023/03/30 05:05:35;;;;;;;13.20;7.20;;;;;;;4.84;67.37;99477.44;218464;1254;141188;-71
2023/03/30 05:10:40;;;;;;;9.70;6.30;;;;;;;4.87;67.27;99482.36;218640;1256;140486;-74
2023/03/30 05:15:51;;;;;;;10.80;5.20;;;;;;;4.93;67.73;99480.21;218702;1256;139944;-72
2023/03/30 05:20:57;;;;;;;11.40;6.40;;;;;;;4.93;67.76;99478.50;218955;1254;139299;-74
2023/03/30 05:26:03;;;;;;;8.30;6.20;;;;;;;4.94;68.52;99482.86;218728;1255;139831;-73
2023/03/30 05:31:07;;;;;;;14.80;8.20;;;;;;;4.97;68.50;99482.45;218339;1254;139886;-73
2023/03/30 05:36:15;;;;;;;10.90;7.80;;;;;;;5.06;68.74;99483.95;218659;1253;139912;-74
2023/03/30 05:41:19;;;;;;;9.80;6.60;;;;;;;5.15;68.95;99481.08;218566;1257;140052;-73
2023/03/30 05:46:23;;;;;;;11.70;6.40;;;;;;;5.18;68.96;99480.17;218253;1257;139147;-72
2023/03/30 05:51:28;;;;;;;8.40;6.60;;;;;;;5.19;69.13;99476.88;219380;1256;139929;-69
2023/03/30 05:56:34;;;;;;;11.10;7.20;;;;;;;5.23;69.19;99473.95;218358;1257;139064;-71
2023/03/30 06:01:39;;;;;;;10.30;7.20;;;;;;;5.28;69.07;99468.70;219488;1256;139959;-70
2023/03/30 06:06:43;;;;;;;8.50;6.70;;;;;;;5.43;69.66;99458.97;220803;1254;138990;-75
2023/03/30 06:11:48;;;;;;;10.80;7.40;;;;;;;5.57;69.25;99450.80;220862;1254;140112;-69
2023/03/30 06:16:52;;;;;;;8.40;6.20;;;;;;;5.69;69.20;99445.96;220516;1256;140346;-70
2023/03/30 06:21:57;;;;;;;7.10;5.30;;;;;;;5.86;69.18;99448.34;220391;1254;139223;-71
2023/03/30 06:27:02;;;;;;;9.80;7.20;;;;;;;6.06;68.85;99450.50;220882;1253;140242;-70
2023/03/30 06:32:07;;;;;;;8.40;7.00;;;;;;;6.31;68.79;99451.89;218329;1257;139409;-75
2023/03/30 06:37:12;;;;;;;9.90;6.40;;;;;;;6.61;68.73;99451.66;219769;1254;138980;-73
2023/03/30 06:42:16;;;;;;;13.50;7.00;;;;;;;6.97;68.73;99452.78;218883;1254;139104;-70
2023/03/30 06:47:21;;;;;;;12.30;6.90;;;;;;;7.33;68.21;99445.86;218966;1257;141354;-75
2023/03/30 06:52:26;;;;;;;6.30;5.70;;;;;;;7.66;67.75;99438.54;219028;1254;140178;-69
2023/03/30 06:57:31;;;;;;;9.50;7.60;;;;;;;7.94;67.18;99436.80;219462;1254;139992;-71
2023/03/30 07:02:36;;;;;;;8.90;6.50;;;;;;;8.24;66.80;99436.91;217947;1257;138985;-68
2023/03/30 07:07:41;;;;;;;6.70;5.90;;;;;;;8.61;66.72;99435.42;218459;1254;139992;-69
2023/03/30 07:12:46;;;;;;;9.10;6.30;;;;;;;8.78;66.12;99433.28;217922;1254;139920;-74
2023/03/30 07:17:50;;;;;;;8.70;4.70;;;;;;;8.91;65.91;99426.05;218105;1254;138972;-73
2023/03/30 07:22:54;;;;;;;9.60;8.30;;;;;;;9.14;65.72;99425.80;218331;1254;139159;-74
2023/03/30 07:27:58;;;;;;;10.10;8.50;;;;;;;9.53;65.82;99418.21;217958;1257;139158;-71
2023/03/30 07:33:04;;;;;;;8.00;6.50;;;;;;;10.20;65.59;99414.48;218695;1254;140400;-69
2023/03/30 07:38:07;;;;;;;9.20;5.30;;;;;;;10.76;64.76;99408.20;217748;1254;365316;-69
2023/03/30 07:43:12;;;;;;;7.10;5.60;;;;;;;10.94;64.23;99400.28;218057;1254;140919;-72
2023/03/30 07:48:16;;;;;;;7.60;5.00;;;;;;;11.32;64.15;99405.10;218435;1257;140284;-71
2023/03/30 07:53:21;;;;;;;7.60;5.70;;;;;;;11.84;63.25;99390.67;218295;1254;140113;-70
2023/03/30 07:58:26;;;;;;;6.00;4.40;;;;;;;12.28;63.09;99385.82;219882;1256;139553;-73
2023/03/30 08:03:30;;;;;;;4.30;3.90;;;;;;;12.69;62.11;99381.44;220096;1254;141095;-75
2023/03/30 08:08:37;;;;;;;9.10;4.20;;;;;;;12.87;61.14;99377.54;220606;1254;139638;-73
2023/03/30 08:13:41;;;;;;;7.40;5.40;;;;;;;13.17;61.11;99376.92;219818;1254;139475;-73
2023/03/30 08:18:46;;;;;;;5.00;4.60;;;;;;;13.46;60.85;99378.02;219955;1254;139307;-70
2023/03/30 08:23:53;;;;;;;9.10;5.30;;;;;;;13.56;59.63;99374.68;217934;1257;140189;-74
2023/03/30 08:28:58;;;;;;;5.30;4.30;;;;;;;13.41;59.48;99379.89;218402;1255;140128;-71
2023/03/30 08:34:03;;;;;;;9.20;4.80;;;;;;;13.32;59.00;99381.92;218047;1254;139044;-73
2023/03/30 08:39:07;;;;;;;4.70;4.20;;;;;;;13.18;59.02;99375.52;218907;1254;140380;-71
2023/03/30 08:44:31;;;;;;;6.40;4.90;;;;;;;12.93;58.72;99369.88;218409;1254;139249;-70
2023/03/30 08:49:46;;;;;;;7.80;5.30;;;;;;;12.63;58.97;99371.02;219885;1257;139368;-71
2023/03/30 08:54:51;;;;;;;7.20;4.70;;;;;;;12.26;59.16;99370.45;218131;1254;139180;-71
2023/03/30 09:00:06;;;;;;;6.70;4.80;;;;;;;12.01;59.47;99361.10;218541;1254;140132;-73
2023/03/30 09:05:28;;;;;;;6.70;5.30;;;;;;;11.79;59.51;99353.73;218049;1254;139102;-68
2023/03/30 09:10:39;;;;;;;8.00;5.30;;;;;;;11.71;60.11;99342.71;219260;1253;139511;-70
2023/03/30 09:15:53;;;;;;;3.90;3.50;;;;;;;12.09;61.07;99320.27;219029;1254;140171;-73
2023/03/30 09:21:01;;;;;;;5.80;4.60;;;;;;;12.95;61.56;99307.80;219199;1254;139159;-70
2023/03/30 09:26:27;;;;;;;4.40;3.60;;;;;;;13.49;60.43;99298.18;218390;1253;150244;-72
2023/03/30 09:31:45;;;;;;;5.80;4.40;;;;;;;13.60;59.74;99290.61;218918;1253;140528;-71
2023/03/30 09:37:00;;;;;;;6.70;4.40;;;;;;;13.43;58.95;99287.95;220846;1253;140355;-74
2023/03/30 09:42:32;;;;;;;5.30;3.30;;;;;;;13.42;59.50;99275.53;218219;1257;140167;-81
2023/03/30 09:47:41;;;;;;;4.60;3.50;;;;;;;13.33;59.06;99258.05;218537;1254;139208;-72
2023/03/30 09:53:02;;;;;;;4.10;3.50;;;;;;;13.12;59.14;99248.44;220057;1252;139813;-72
2023/03/30 09:58:27;;;;;;;4.60;3.90;;;;;;;12.88;59.14;99253.21;220062;1254;139888;-72
2023/03/30 10:03:33;;;;;;;5.50;4.40;;;;;;;12.68;59.56;99254.89;220316;1253;139347;-71
2023/03/30 10:08:57;;;;;;;4.10;3.60;;;;;;;12.69;59.65;99238.80;220128;1254;140788;-72
2023/03/30 10:14:04;;;;;;;4.60;3.80;;;;;;;12.71;59.84;99229.44;221182;1253;139396;-72
2023/03/30 10:19:18;;;;;;;5.30;3.80;;;;;;;12.55;59.73;99214.28;221218;1252;139973;-72
2023/03/30 10:24:30;;;;;;;8.10;3.80;;;;;;;12.36;59.72;99209.80;219769;1251;139865;-71
2023/03/30 10:29:36;;;;;;;4.20;3.80;;;;;;;12.37;60.11;99188.95;221230;1254;139636;-72
2023/03/30 10:34:44;;;;;;;3.00;2.70;;;;;;;12.32;60.31;99181.45;220670;1254;139868;-72
2023/03/30 10:39:52;;;;;;;3.40;3.10;;;;;;;12.42;60.53;99166.06;219358;1251;140023;-71
2023/03/30 10:45:05;;;;;;;5.40;3.80;;;;;;;12.47;60.40;99171.31;219874;1254;139654;-71
2023/03/30 10:50:39;;;;;;;6.90;4.20;;;;;;;12.39;60.48;99183.95;219115;1251;140631;-71
2023/03/30 10:55:57;;;;;;;5.80;3.90;;;;;;;12.36;60.63;99180.56;219770;1251;140000;-72
2023/03/30 11:01:11;;;;;;;5.60;4.50;;;;;;;12.56;60.90;99174.17;218261;1252;139992;-70
2023/03/30 11:06:29;;;;;;;7.80;4.10;;;;;;;12.74;60.89;99168.16;219236;1253;139575;-72
2023/03/30 11:11:39;;;;;;;6.20;3.80;;;;;;;12.89;60.88;99163.05;218477;1256;139272;-71
2023/03/30 11:16:56;;;;;;;6.30;4.00;;;;;;;12.93;60.87;99155.64;218540;1256;139711;-72
2023/03/30 11:22:20;;;;;;;8.20;4.00;;;;;;;13.23;61.10;99153.30;218263;1254;139585;-74
2023/03/30 11:27:39;;;;;;;4.60;3.90;;;;;;;13.57;60.87;99144.38;218681;1257;139818;-72
2023/03/30 11:33:09;;;;;;;8.50;4.50;;;;;;;13.83;60.44;99138.95;218562;1257;139396;-71
2023/03/30 11:38:49;;;;;;;5.70;3.60;;;;;;;14.11;60.39;99122.38;218644;1254;139335;-71
2023/03/30 11:43:54;;;;;;;9.40;4.90;;;;;;;14.15;59.41;99118.19;218069;1254;138898;-69
2023/03/30 11:49:11;;;;;;;7.40;5.00;;;;;;;14.11;59.61;99116.05;218851;1256;139539;-71
2023/03/30 11:54:18;;;;;;;5.10;4.30;;;;;;;14.16;59.82;99117.86;218219;1257;139660;-72
2023/03/30 11:59:44;;;;;;;5.50;4.40;;;;;;;14.19;59.69;99112.34;219358;1255;139515;-72
2023/03/30 12:05:11;;;;;;;5.90;5.00;;;;;;;14.26;59.90;99113.48;219198;1254;139598;-72
2023/03/30 12:10:24;;;;;;;5.10;3.80;;;;;;;14.26;59.65;99108.20;218323;1256;150734;-71
2023/03/30 12:15:41;;;;;;;6.60;4.20;;;;;;;14.18;59.28;99096.58;219022;1254;139260;-72
2023/03/30 12:20:59;;;;;;;5.00;4.30;;;;;;;14.04;59.74;99090.73;220871;1254;139660;-73
2023/03/30 12:26:16;;;;;;;6.40;3.70;;;;;;;13.92;60.29;99076.99;219748;1254;139030;-72
2023/03/30 12:31:22;;;;;;;5.60;3.80;;;;;;;13.76;60.47;99076.71;219383;1253;139468;-73
2023/03/30 12:36:36;;;;;;;3.80;3.30;;;;;;;13.65;60.68;99078.56;219910;1254;140600;-72
2023/03/30 12:41:49;;;;;;;5.70;4.20;;;;;;;13.60;61.00;99075.23;218564;1251;139702;-72
2023/03/30 12:47:08;;;;;;;5.40;3.40;;;;;;;13.61;61.18;99068.48;219469;1254;139414;-72
2023/03/30 12:52:37;;;;;;;5.00;3.90;;;;;;;13.66;61.28;99062.23;218448;1254;138994;-72
2023/03/30 12:57:53;;;;;;;4.90;4.10;;;;;;;13.76;61.26;99051.52;219637;1251;139282;-74
2023/03/30 13:03:29;;;;;;;7.20;4.90;;;;;;;13.84;61.23;99043.48;219127;1251;139807;-72
2023/03/30 13:08:37;;;;;;;7.30;4.80;;;;;;;13.93;61.09;99033.80;218726;1251;139505;-73
2023/03/30 13:14:14;;;;;;;4.70;3.70;;;;;;;13.95;61.06;99034.50;218925;1251;139776;-73
2023/03/30 13:19:18;;;;;;;5.50;4.60;;;;;;;13.94;60.95;99031.45;218816;1251;138729;-72
2023/03/30 13:24:31;;;;;;;5.60;3.40;;;;;;;13.88;61.05;99026.31;218527;1251;140194;-72
2023/03/30 13:29:36;;;;;;;5.20;4.10;;;;;;;13.89;61.18;99026.84;218603;1252;139561;-73
2023/03/30 13:34:40;;;;;;;6.20;4.30;;;;;;;13.85;61.63;99018.77;218494;1254;139626;-72
2023/03/30 13:40:07;;;;;;;4.50;4.00;;;;;;;13.75;61.75;99024.27;218621;1251;141060;-72
2023/03/30 13:45:37;;;;;;;3.70;3.40;;;;;;;13.65;61.97;99040.75;218687;1254;139067;-72
2023/03/30 13:50:56;;;;;;;8.00;3.90;;;;;;;13.50;62.35;99053.94;219347;1251;139910;-73
2023/03/30 13:56:06;;;;;;;5.60;4.50;;;;;;;13.31;62.83;99060.17;218576;1255;139237;-72
2023/03/30 14:01:13;;;;;;;5.50;4.50;;;;;;;13.10;63.47;99047.52;218581;1251;139349;-71
2023/03/30 14:06:25;;;;;;;4.20;3.60;;;;;;;12.91;64.10;99048.31;221081;1254;139155;-71
2023/03/30 14:11:44;;;;;;;7.80;5.20;;;;;;;12.74;64.54;99033.54;218738;1256;139953;-72
2023/03/30 14:16:50;;;;;;;6.90;5.40;;;;;;;12.51;65.16;99017.40;219765;1253;140499;-71
2023/03/30 14:22:00;;;;;;;8.10;5.40;;;;;;;12.29;65.79;99012.75;220343;1254;139278;-71
2023/03/30 14:27:14;;;;;;;6.30;4.40;;;;;;;12.20;66.46;99004.23;219943;1253;139609;-72
2023/03/30 14:32:22;;;;;;;12.30;6.00;;;;;;;12.06;66.85;98994.14;220646;1253;141558;-71
2023/03/30 14:37:29;;;;;;;8.40;5.40;;;;;;;11.99;67.13;98985.66;218809;1254;140142;-72
2023/03/30 14:42:34;;;;;;;7.20;5.30;;;;;;;11.91;67.26;98971.65;219843;1251;140125;-71
2023/03/30 14:47:39;;;;;;;9.70;5.40;;;;;;;11.91;67.61;98964.18;219930;1251;139823;-72
2023/03/30 14:52:47;;;;;;;11.60;6.60;;;;;;;11.91;67.86;98951.53;219517;1253;141696;-72
2023/03/30 14:57:54;;;;;;;17.40;8.50;;;;;;;11.94;67.90;98945.05;219240;1253;140011;-72
2023/03/30 15:03:00;;;;;;;9.40;6.10;;;;;;;12.00;68.12;98938.13;218671;1251;140161;-72
2023/03/30 15:08:05;;;;;;;12.00;7.70;;;;;;;12.05;68.14;98933.23;218162;1251;140210;-71
2023/03/30 15:13:19;;;;;;;9.70;6.90;;;;;;;12.04;68.30;98928.95;218235;1254;140347;-70
2023/03/30 15:18:26;;;;;;;8.50;5.70;;;;;;;12.02;68.56;98926.86;219502;1256;140164;-72
2023/03/30 15:23:39;;;;;;;7.30;5.70;;;;;;;12.05;68.48;98916.89;218511;1255;141243;-71
2023/03/30 15:28:54;;;;;;;6.10;4.70;;;;;;;12.07;68.47;98906.67;219352;1251;139457;-72
2023/03/30 15:34:04;;;;;;;10.60;6.20;;;;;;;12.13;68.70;98901.30;218486;1251;139840;-72
2023/03/30 15:39:24;;;;;;;11.10;5.70;;;;;;;12.16;68.65;98887.90;218840;1251;140931;-71
2023/03/30 15:44:28;;;;;;;8.80;7.10;;;;;;;12.14;68.71;98881.86;219070;1251;140194;-72
2023/03/30 15:49:44;;;;;;;11.30;6.90;;;;;;;12.09;68.80;98881.42;219656;1253;141805;-71
2023/03/30 15:54:54;;;;;;;5.90;3.90;;;;;;;12.08;68.95;98871.00;220351;1252;140390;-72
2023/03/30 16:00:17;;;;;;;8.80;6.10;;;;;;;12.07;69.13;98860.52;220879;1252;141262;-72
2023/03/30 16:05:26;;;;;;;14.70;7.40;;;;;;;12.04;69.26;98854.80;221215;1254;140648;-72
2023/03/30 16:10:32;;;;;;;12.00;6.90;;;;;;;12.01;69.26;98840.69;220728;1253;140700;-72
2023/03/30 16:15:38;;;;;;;10.60;6.50;;;;;;;12.00;69.50;98845.44;220690;1252;140594;-72
2023/03/30 16:20:44;;;;;;;14.50;8.00;;;;;;;12.02;69.45;98842.45;220326;1254;140292;-72
2023/03/30 16:25:48;;;;;;;15.10;7.60;;;;;;;12.05;69.69;98839.05;220199;1254;140370;-72
2023/03/30 16:30:54;;;;;;;11.90;7.10;;;;;;;12.04;69.66;98840.33;221007;1253;140177;-72
2023/03/30 16:35:59;;;;;;;9.40;7.00;;;;;;;12.02;69.85;98841.76;219028;1251;141243;-71
2023/03/30 16:41:05;;;;;;;11.50;7.40;;;;;;;12.01;69.89;98831.77;219438;1251;140907;-71
2023/03/30 16:46:14;;;;;;;12.30;7.20;;;;;;;12.00;70.20;98839.78;219185;1257;140207;-72
2023/03/30 16:51:20;;;;;;;19.50;6.30;;;;;;;12.00;70.38;98830.96;219732;1251;140254;-72
2023/03/30 16:56:25;;;;;;;13.50;8.60;;;;;;;11.99;70.35;98824.50;219725;1251;141550;-72
2023/03/30 17:01:30;;;;;;;5.50;3.90;;;;;;;12.00;70.50;98817.50;219500;1251;139815;-72
2023/03/30 17:06:34;;;;;;;11.50;6.90;;;;;;;11.98;70.65;98808.95;219388;1251;140580;-71
2023/03/30 17:11:38;;;;;;;8.60;6.40;;;;;;;11.97;70.88;98804.95;218470;1253;140375;-71
2023/03/30 17:16:42;;;;;;;8.90;6.60;;;;;;;11.97;70.82;98800.67;218238;1251;140669;-74
2023/03/30 17:21:46;;;;;;;7.80;6.10;;;;;;;11.96;70.94;98808.20;218543;1251;140687;-73
2023/03/30 17:26:50;;;;;;;17.60;6.70;;;;;;;11.93;71.22;98818.79;218590;1252;140431;-73
2023/03/30 17:31:55;;;;;;;9.30;6.70;;;;;;;11.87;71.35;98809.08;219726;1256;140546;-74
2023/03/30 17:36:59;;;;;;;11.80;6.70;;;;;;;11.85;71.63;98814.30;218237;1252;139982;-73
2023/03/30 17:42:04;;;;;;;9.90;6.00;;;;;;;11.82;71.61;98814.56;218300;1254;139682;-73
2023/03/30 17:47:08;;;;;;;8.80;6.70;;;;;;;11.80;71.75;98814.19;218954;1253;141582;-74
2023/03/30 17:52:12;;;;;;;10.20;7.10;;;;;;;11.78;71.97;98819.36;218404;1251;229690;-73
2023/03/30 17:57:17;;;;;;;18.00;7.60;;;;;;;11.78;72.18;98821.12;218358;1254;141910;-74
2023/03/30 18:02:20;;;;;;;9.50;5.60;;;;;;;11.77;72.08;98823.23;218289;1257;139955;-73
2023/03/30 18:07:24;;;;;;;10.00;6.80;;;;;;;11.73;72.31;98816.80;218267;1254;140652;-74
2023/03/30 18:12:28;;;;;;;9.20;6.80;;;;;;;11.70;72.50;98822.73;220042;1251;139672;-71
2023/03/30 18:17:32;;;;;;;8.10;6.10;;;;;;;11.67;72.86;98826.45;221099;1254;141424;-75
2023/03/30 18:22:36;;;;;;;10.60;5.80;;;;;;;11.66;73.23;98834.23;221163;1253;139505;-75
2023/03/30 18:27:43;;;;;;;11.70;6.10;;;;;;;11.63;73.07;98839.36;220770;1254;140516;-74
2023/03/30 18:32:50;;;;;;;10.00;7.00;;;;;;;11.57;73.42;98843.27;221105;1256;139957;-73
2023/03/30 18:37:55;;;;;;;7.70;5.40;;;;;;;11.50;73.83;98831.86;219765;1254;140503;-72
2023/03/30 18:43:04;;;;;;;9.00;6.10;;;;;;;11.43;74.13;98829.91;219040;1254;140806;-72
2023/03/30 18:48:15;;;;;;;6.70;5.60;;;;;;;11.33;74.38;98837.35;219234;1256;139500;-72
2023/03/30 18:53:22;;;;;;;16.40;7.70;;;;;;;11.26;74.66;98839.79;218574;1251;142712;-73
2023/03/30 18:58:29;;;;;;;8.60;5.30;;;;;;;11.20;74.75;98832.45;219439;1254;142392;-74
2023/03/30 19:03:37;;;;;;;6.20;5.50;;;;;;;11.15;75.05;98833.54;218652;1253;139995;-73
2023/03/30 19:08:43;;;;;;;8.10;5.70;;;;;;;11.12;75.43;98837.58;219490;1257;141923;-73
2023/03/30 19:13:48;;;;;;;6.80;6.10;;;;;;;11.09;75.35;98838.73;218085;1257;140809;-74
2023/03/30 19:18:53;;;;;;;7.10;4.70;;;;;;;11.09;75.89;98830.27;218491;1254;140433;-73
2023/03/30 19:23:59;;;;;;;10.20;5.90;;;;;;;11.03;75.89;98824.04;219069;1254;140726;-73
2023/03/30 19:29:04;;;;;;;8.20;6.40;;;;;;;10.97;76.02;98821.95;219868;1254;141291;-70
2023/03/30 19:34:09;;;;;;;6.90;5.60;;;;;;;10.92;76.39;98814.61;218832;1254;991715;-76
2023/03/30 19:39:14;;;;;;;7.80;5.90;;;;;;;10.89;76.65;98812.04;218364;1254;140764;-76
2023/03/30 19:44:20;;;;;;;13.10;6.30;;;;;;;10.87;76.90;98805.95;219645;1253;139636;-73
2023/03/30 19:49:25;;;;;;;6.90;5.10;;;;;;;10.85;77.06;98801.73;219838;1254;141661;-74
2023/03/30 19:54:30;;;;;;;12.30;6.20;;;;;;;10.83;77.00;98799.90;219405;1254;140276;-73
2023/03/30 19:59:34;;;;;;;10.10;5.50;;;;;;;10.83;77.23;98799.79;220593;1254;141691;-73
2023/03/30 20:04:39;;;;;;;6.00;4.90;;;;;;;10.81;77.13;98794.39;219649;1258;140118;-72
2023/03/30 20:09:44;;;;;;;8.60;5.40;;;;;;;10.78;77.34;98790.10;219971;1254;141758;-70
2023/03/30 20:14:48;;;;;;;11.30;5.30;;;;;;;10.78;77.44;98787.44;221142;1254;140090;-73
2023/03/30 20:19:53;;;;;;;8.10;6.00;;;;;;;10.79;77.24;98786.49;220536;1256;141391;-75
2023/03/30 20:24:59;;;;;;;8.30;5.40;;;;;;;10.81;77.32;98781.86;219539;1254;140213;-70
2023/03/30 20:30:10;;;;;;;11.50;5.50;;;;;;;10.80;77.23;98779.89;218540;1254;139806;-72
2023/03/30 20:35:18;;;;;;;6.90;5.30;;;;;;;10.79;77.26;98780.46;218285;1254;140453;-75
2023/03/30 20:40:22;;;;;;;7.70;5.70;;;;;;;10.76;77.44;98776.02;218704;1258;140537;-73
2023/03/30 20:45:30;;;;;;;9.90;6.00;;;;;;;10.74;77.50;98778.30;219362;1254;140460;-71
2023/03/30 20:50:35;;;;;;;8.50;5.70;;;;;;;10.70;77.39;98766.89;219501;1254;140471;-76
2023/03/30 20:55:39;;;;;;;7.40;5.50;;;;;;;10.63;77.32;98765.36;218768;1257;140383;-74
2023/03/30 21:00:46;;;;;;;7.50;6.40;;;;;;;10.58;77.58;98757.07;218137;1257;140425;-76
2023/03/30 21:06:01;;;;;;;9.90;6.40;;;;;;;10.55;77.55;98755.08;218613;1253;140556;-74
2023/03/30 21:11:07;;;;;;;9.40;5.00;;;;;;;10.51;77.28;98753.14;218510;1257;141648;-68
2023/03/30 21:16:11;;;;;;;9.40;5.60;;;;;;;10.44;77.52;98751.96;219148;1254;139871;-70
2023/03/30 21:21:16;;;;;;;7.30;4.80;;;;;;;10.36;77.54;98749.48;218851;1254;140213;-73
2023/03/30 21:26:21;;;;;;;6.30;5.40;;;;;;;10.31;77.50;98751.16;218178;1254;141373;-72
2023/03/30 21:31:28;;;;;;;8.50;7.20;;;;;;;10.24;77.49;98749.61;218914;1254;140776;-73
2023/03/30 21:36:32;;;;;;;6.60;5.40;;;;;;;10.17;77.81;98748.00;218939;1257;140051;-73
2023/03/30 21:41:37;;;;;;;9.60;6.10;;;;;;;10.09;77.75;98743.78;218695;1254;139928;-72
2023/03/30 21:46:41;;;;;;;12.10;6.00;;;;;;;10.03;77.65;98747.89;218293;1254;140007;-69
2023/03/30 21:51:47;;;;;;;6.80;5.90;;;;;;;9.96;77.57;98749.91;220072;1254;140509;-70
2023/03/30 21:56:52;;;;;;;8.10;5.90;;;;;;;9.88;77.76;98757.41;218883;1254;139724;-68
2023/03/30 22:02:00;;;;;;;12.40;7.30;;;;;;;9.83;77.65;98768.27;219748;1254;140215;-70
2023/03/30 22:07:05;;;;;;;8.90;6.00;;;;;;;9.80;77.96;98769.73;219792;1254;140326;-72
2023/03/30 22:12:10;;;;;;;5.80;5.20;;;;;;;9.80;78.09;98779.89;220845;1254;140151;-69
2023/03/30 22:17:13;;;;;;;12.40;6.50;;;;;;;9.81;78.13;98776.45;220080;1254;139779;-68
2023/03/30 22:22:18;;;;;;;8.00;5.50;;;;;;;9.85;77.90;98776.70;219729;1256;237428;-72
2023/03/30 22:27:22;;;;;;;10.50;6.70;;;;;;;9.89;78.15;98776.30;218163;1259;139858;-72
2023/03/30 22:32:27;;;;;;;8.00;5.90;;;;;;;9.90;77.89;98781.49;218816;1254;140586;-68
2023/03/30 22:37:31;;;;;;;10.70;7.70;;;;;;;9.90;77.98;98793.10;219287;1256;139603;-69
2023/03/30 22:42:37;;;;;;;12.10;6.20;;;;;;;9.89;78.02;98801.40;219202;1254;140085;-70
2023/03/30 22:47:42;;;;;;;7.50;4.40;;;;;;;9.89;77.98;98807.71;218299;1255;140586;-66
2023/03/30 22:52:47;;;;;;;8.10;6.00;;;;;;;9.88;78.01;98808.08;219790;1254;140654;-69
2023/03/30 22:57:55;;;;;;;6.70;4.80;;;;;;;9.87;77.91;98802.38;218890;1256;140366;-68
2023/03/30 23:03:01;;;;;;;5.80;4.70;;;;;;;9.88;77.74;98793.39;218990;1259;140123;-69
2023/03/30 23:08:05;;;;;;;6.00;4.30;;;;;;;9.86;77.64;98789.91;219033;1254;139668;-69
2023/03/30 23:13:11;;;;;;;8.60;5.60;;;;;;;9.83;77.67;98786.64;218230;1258;139528;-72
2023/03/30 23:18:16;;;;;;;6.70;3.90;;;;;;;9.82;77.57;98787.73;218372;1259;140292;-70
2023/03/30 23:23:19;;;;;;;5.60;4.40;;;;;;;9.80;77.76;98797.94;219315;1256;140371;-69
2023/03/30 23:28:24;;;;;;;4.70;3.80;;;;;;;9.81;77.53;98807.70;218424;1257;139791;-74
2023/03/30 23:33:29;;;;;;;8.80;5.70;;;;;;;9.82;77.41;98811.48;219214;1254;140724;-69
2023/03/30 23:38:35;;;;;;;11.00;5.40;;;;;;;9.78;77.53;98810.77;219777;1253;140427;-71
2023/03/30 23:43:40;;;;;;;6.20;5.30;;;;;;;9.76;77.55;98817.09;218380;1257;139906;-71